Terminal Aerodrome Forecast
Issued by NWS

Home | Current Version | Previous Version | Text Only | Print | Product List | Glossary Off
Versions: 1 2 3 4 5 6 7 8 9 10 11 12 13 14 15 16 17

000
FTUS42 KMHX 220551
TAFPGV
TAF
KPGV 220551Z 2206/2306 22009KT P6SM SCT090
     FM220900 24009KT P6SM SCT050 BKN090
     FM221900 28008KT P6SM VCSH SCT040 BKN070
     FM230000 VRB05KT 6SM -SHRA BKN040
     FM230400 03008KT P6SM VCSH BKN015
      AMD LTD TO CLD VIS AND WIND=

USA.gov is the U.S. government's official web portal to all federal, state and local government web resources and services.